sensor_id;sensor_type;location;lat;lon;timestamp;pressure;altitude;pressure_sealevel;temperature;humidity
12475;BME280;6302;42.624;23.334;2023-08-21T00:01:29;93699.94;;;23.51;78.83
12475;BME280;6302;42.624;23.334;2023-08-21T00:03:56;93697.88;;;23.46;79.58
12475;BME280;6302;42.624;23.334;2023-08-21T00:06:23;93704.66;;;23.42;79.51
12475;BME280;6302;42.624;23.334;2023-08-21T00:08:50;93691.78;;;23.37;79.46
12475;BME280;6302;42.624;23.334;2023-08-21T00:11:16;93689.69;;;23.31;79.20
12475;BME280;6302;42.624;23.334;2023-08-21T00:13:43;93695.09;;;23.31;78.88
12475;BME280;6302;42.624;23.334;2023-08-21T00:16:14;93689.91;;;23.28;78.20
12475;BME280;6302;42.624;23.334;2023-08-21T00:18:41;93684.25;;;23.17;78.33
12475;BME280;6302;42.624;23.334;2023-08-21T00:21:08;93694.72;;;23.24;79.13
12475;BME280;6302;42.624;23.334;2023-08-21T00:23:35;93693.25;;;23.23;80.12
12475;BME280;6302;42.624;23.334;2023-08-21T00:26:01;93668.41;;;23.10;79.58
12475;BME280;6302;42.624;23.334;2023-08-21T00:28:28;93682.75;;;23.16;79.61
12475;BME280;6302;42.624;23.334;2023-08-21T00:31:00;93689.38;;;23.15;79.80
12475;BME280;6302;42.624;23.334;2023-08-21T00:33:30;93688.63;;;23.14;80.52
12475;BME280;6302;42.624;23.334;2023-08-21T00:35:57;93692.09;;;23.15;80.61
12475;BME280;6302;42.624;23.334;2023-08-21T00:38:24;93690.50;;;23.08;80.73
12475;BME280;6302;42.624;23.334;2023-08-21T00:40:51;93693.47;;;23.10;80.73
12475;BME280;6302;42.624;23.334;2023-08-21T00:43:18;93691.50;;;23.11;81.18
12475;BME280;6302;42.624;23.334;2023-08-21T00:45:46;93693.94;;;23.09;82.04
12475;BME280;6302;42.624;23.334;2023-08-21T00:48:14;93699.13;;;22.98;81.47
12475;BME280;6302;42.624;23.334;2023-08-21T00:50:43;93696.41;;;22.98;81.33
12475;BME280;6302;42.624;23.334;2023-08-21T00:53:11;93699.41;;;23.00;82.53
12475;BME280;6302;42.624;23.334;2023-08-21T00:55:38;93701.53;;;22.96;83.63
12475;BME280;6302;42.624;23.334;2023-08-21T00:58:05;93706.06;;;22.90;84.89
12475;BME280;6302;42.624;23.334;2023-08-21T01:00:34;93657.91;;;22.55;84.15
12475;BME280;6302;42.624;23.334;2023-08-21T01:03:01;93702.81;;;22.86;84.57
12475;BME280;6302;42.624;23.334;2023-08-21T01:05:28;93699.50;;;22.82;83.59
12475;BME280;6302;42.624;23.334;2023-08-21T01:08:01;93708.56;;;22.79;83.90
12475;BME280;6302;42.624;23.334;2023-08-21T01:10:39;93707.81;;;22.78;83.63
12475;BME280;6302;42.624;23.334;2023-08-21T01:13:18;93699.09;;;22.74;84.28
12475;BME280;6302;42.624;23.334;2023-08-21T01:15:49;93710.66;;;22.75;83.87
12475;BME280;6302;42.624;23.334;2023-08-21T01:18:17;93702.63;;;22.65;85.57
12475;BME280;6302;42.624;23.334;2023-08-21T01:20:44;93700.66;;;22.66;85.93
12475;BME280;6302;42.624;23.334;2023-08-21T01:23:32;93700.81;;;22.62;84.05
12475;BME280;6302;42.624;23.334;2023-08-21T01:25:59;93692.56;;;22.57;83.03
12475;BME280;6302;42.624;23.334;2023-08-21T01:28:26;93699.91;;;22.65;84.10
12475;BME280;6302;42.624;23.334;2023-08-21T01:30:59;93700.81;;;22.62;83.61
12475;BME280;6302;42.624;23.334;2023-08-21T01:33:26;93696.66;;;22.52;82.84
12475;BME280;6302;42.624;23.334;2023-08-21T01:35:56;93705.03;;;22.54;83.27
12475;BME280;6302;42.624;23.334;2023-08-21T01:38:25;93702.66;;;22.56;83.39
12475;BME280;6302;42.624;23.334;2023-08-21T01:40:53;93708.03;;;22.56;83.28
12475;BME280;6302;42.624;23.334;2023-08-21T01:43:20;93688.25;;;22.50;84.17
12475;BME280;6302;42.624;23.334;2023-08-21T01:45:47;93706.53;;;22.55;82.55
12475;BME280;6302;42.624;23.334;2023-08-21T01:48:13;93697.06;;;22.60;81.90
12475;BME280;6302;42.624;23.334;2023-08-21T01:50:40;93707.09;;;22.59;82.86
12475;BME280;6302;42.624;23.334;2023-08-21T01:53:07;93704.31;;;22.54;83.43
12475;BME280;6302;42.624;23.334;2023-08-21T01:55:35;93700.56;;;22.51;83.24
12475;BME280;6302;42.624;23.334;2023-08-21T01:58:02;93698.16;;;22.53;83.81
12475;BME280;6302;42.624;23.334;2023-08-21T02:00:29;93693.50;;;22.54;83.78
12475;BME280;6302;42.624;23.334;2023-08-21T02:02:55;93700.56;;;22.51;82.86
12475;BME280;6302;42.624;23.334;2023-08-21T02:05:22;93691.38;;;22.58;81.80
12475;BME280;6302;42.624;23.334;2023-08-21T02:07:49;93689.72;;;22.60;80.15
12475;BME280;6302;42.624;23.334;2023-08-21T02:10:16;93695.28;;;22.66;79.97
12475;BME280;6302;42.624;23.334;2023-08-21T02:12:44;93697.50;;;22.67;80.17
12475;BME280;6302;42.624;23.334;2023-08-21T02:15:10;93702.91;;;22.67;80.17
12475;BME280;6302;42.624;23.334;2023-08-21T02:17:37;93699.00;;;22.69;80.17
12475;BME280;6302;42.624;23.334;2023-08-21T02:20:05;93695.84;;;22.70;80.04
12475;BME280;6302;42.624;23.334;2023-08-21T02:22:32;93697.78;;;22.70;80.42
12475;BME280;6302;42.624;23.334;2023-08-21T02:24:58;93694.31;;;22.69;80.97
12475;BME280;6302;42.624;23.334;2023-08-21T02:27:25;93700.66;;;22.66;80.77
12475;BME280;6302;42.624;23.334;2023-08-21T02:29:53;93692.09;;;22.67;81.85
12475;BME280;6302;42.624;23.334;2023-08-21T02:32:20;93689.28;;;22.62;82.24
12475;BME280;6302;42.624;23.334;2023-08-21T02:34:47;93693.31;;;22.57;81.67
12475;BME280;6302;42.624;23.334;2023-08-21T02:37:14;93690.91;;;22.59;81.75
12475;BME280;6302;42.624;23.334;2023-08-21T02:39:40;93692.41;;;22.60;81.58
12475;BME280;6302;42.624;23.334;2023-08-21T02:42:07;93684.78;;;22.59;83.82
12475;BME280;6302;42.624;23.334;2023-08-21T02:44:36;93695.16;;;22.51;81.68
12475;BME280;6302;42.624;23.334;2023-08-21T02:47:04;93692.91;;;22.50;81.56
12475;BME280;6302;42.624;23.334;2023-08-21T02:49:31;93692.47;;;22.51;81.14
12475;BME280;6302;42.624;23.334;2023-08-21T02:51:58;93687.34;;;22.53;82.61
12475;BME280;6302;42.624;23.334;2023-08-21T02:54:25;93697.28;;;22.47;83.71
12475;BME280;6302;42.624;23.334;2023-08-21T02:56:51;93697.75;;;22.46;85.16
12475;BME280;6302;42.624;23.334;2023-08-21T02:59:18;93697.13;;;22.42;85.35
12475;BME280;6302;42.624;23.334;2023-08-21T03:01:45;93695.81;;;22.37;85.70
12475;BME280;6302;42.624;23.334;2023-08-21T03:04:13;93699.13;;;22.32;87.34
12475;BME280;6302;42.624;23.334;2023-08-21T03:06:40;93698.56;;;22.28;88.05
12475;BME280;6302;42.624;23.334;2023-08-21T03:09:07;93696.47;;;22.23;87.62
12475;BME280;6302;42.624;23.334;2023-08-21T03:11:33;93692.88;;;22.17;86.87
12475;BME280;6302;42.624;23.334;2023-08-21T03:14:00;93703.69;;;22.17;88.00
12475;BME280;6302;42.624;23.334;2023-08-21T03:16:27;93696.53;;;22.14;89.50
12475;BME280;6302;42.624;23.334;2023-08-21T03:18:55;93699.38;;;22.11;89.82
12475;BME280;6302;42.624;23.334;2023-08-21T03:21:24;93703.44;;;22.06;90.16
12475;BME280;6302;42.624;23.334;2023-08-21T03:23:54;93707.22;;;21.99;91.36
12475;BME280;6302;42.624;23.334;2023-08-21T03:26:21;93712.47;;;21.94;91.07
12475;BME280;6302;42.624;23.334;2023-08-21T03:28:48;93709.63;;;21.88;89.80
12475;BME280;6302;42.624;23.334;2023-08-21T03:31:15;93701.53;;;21.79;89.68
12475;BME280;6302;42.624;23.334;2023-08-21T03:33:42;93713.97;;;21.86;89.97
12475;BME280;6302;42.624;23.334;2023-08-21T03:36:09;93714.41;;;21.84;90.39
12475;BME280;6302;42.624;23.334;2023-08-21T03:38:37;93707.09;;;21.85;91.35
12475;BME280;6302;42.624;23.334;2023-08-21T03:41:04;93708.41;;;21.80;92.90
12475;BME280;6302;42.624;23.334;2023-08-21T03:43:31;93712.75;;;21.78;93.44
12475;BME280;6302;42.624;23.334;2023-08-21T03:45:58;93711.00;;;21.75;93.22
12475;BME280;6302;42.624;23.334;2023-08-21T03:48:25;93700.19;;;21.75;93.81
12475;BME280;6302;42.624;23.334;2023-08-21T03:50:51;93710.66;;;21.73;94.34
12475;BME280;6302;42.624;23.334;2023-08-21T03:53:18;93703.50;;;21.70;93.92
12475;BME280;6302;42.624;23.334;2023-08-21T03:55:46;93709.47;;;21.74;92.21
12475;BME280;6302;42.624;23.334;2023-08-21T03:58:13;93708.28;;;21.75;91.59
12475;BME280;6302;42.624;23.334;2023-08-21T04:00:40;93714.28;;;21.79;91.62
12475;BME280;6302;42.624;23.334;2023-08-21T04:03:07;93706.75;;;21.83;92.06
12475;BME280;6302;42.624;23.334;2023-08-21T04:05:34;93709.81;;;21.85;91.80
12475;BME280;6302;42.624;23.334;2023-08-21T04:08:01;93718.91;;;21.87;91.87
12475;BME280;6302;42.624;23.334;2023-08-21T04:10:27;93713.38;;;21.91;91.84
12475;BME280;6302;42.624;23.334;2023-08-21T04:12:55;93720.84;;;21.96;91.33
12475;BME280;6302;42.624;23.334;2023-08-21T04:15:22;93719.06;;;22.02;91.27
12475;BME280;6302;42.624;23.334;2023-08-21T04:17:49;93715.88;;;22.03;91.59
12475;BME280;6302;42.624;23.334;2023-08-21T04:20:16;93722.63;;;22.08;91.24
12475;BME280;6302;42.624;23.334;2023-08-21T04:22:42;93723.19;;;22.12;89.85
12475;BME280;6302;42.624;23.334;2023-08-21T04:25:09;93725.59;;;22.19;87.46
12475;BME280;6302;42.624;23.334;2023-08-21T04:27:39;93729.44;;;22.27;87.78
12475;BME280;6302;42.624;23.334;2023-08-21T04:30:09;93724.47;;;22.35;86.80
12475;BME280;6302;42.624;23.334;2023-08-21T04:32:36;93716.84;;;22.33;86.10
12475;BME280;6302;42.624;23.334;2023-08-21T04:35:03;93736.72;;;22.54;86.14
12475;BME280;6302;42.624;23.334;2023-08-21T04:37:30;93740.59;;;22.62;86.47
12475;BME280;6302;42.624;23.334;2023-08-21T04:39:57;93731.44;;;22.69;87.41
12475;BME280;6302;42.624;23.334;2023-08-21T04:42:24;93727.06;;;22.71;87.63
12475;BME280;6302;42.624;23.334;2023-08-21T04:44:51;93732.56;;;22.77;86.96
12475;BME280;6302;42.624;23.334;2023-08-21T04:47:23;93735.69;;;22.84;86.67
12475;BME280;6302;42.624;23.334;2023-08-21T04:49:51;93737.00;;;22.89;86.54
12475;BME280;6302;42.624;23.334;2023-08-21T04:52:18;93725.88;;;22.96;84.73
12475;BME280;6302;42.624;23.334;2023-08-21T04:54:45;93732.41;;;23.04;83.93
12475;BME280;6302;42.624;23.334;2023-08-21T04:57:12;93737.78;;;23.13;84.10
12475;BME280;6302;42.624;23.334;2023-08-21T04:59:39;93734.72;;;23.20;84.36
12475;BME280;6302;42.624;23.334;2023-08-21T05:02:06;93738.56;;;23.28;83.93
12475;BME280;6302;42.624;23.334;2023-08-21T05:04:36;93750.38;;;23.40;84.58
12475;BME280;6302;42.624;23.334;2023-08-21T05:07:03;93749.34;;;23.37;88.37
12475;BME280;6302;42.624;23.334;2023-08-21T05:09:30;93744.69;;;23.28;94.15
12475;BME280;6302;42.624;23.334;2023-08-21T05:11:58;93752.38;;;23.30;93.19
12475;BME280;6302;42.624;23.334;2023-08-21T05:14:24;93760.28;;;23.33;92.14
12475;BME280;6302;42.624;23.334;2023-08-21T05:16:51;93761.34;;;23.36;93.73
12475;BME280;6302;42.624;23.334;2023-08-21T05:19:18;93756.88;;;23.33;94.44
12475;BME280;6302;42.624;23.334;2023-08-21T05:21:46;93764.94;;;23.42;94.58
12475;BME280;6302;42.624;23.334;2023-08-21T05:24:13;93766.72;;;23.45;94.22
12475;BME280;6302;42.624;23.334;2023-08-21T05:26:40;93764.41;;;23.53;93.61
12475;BME280;6302;42.624;23.334;2023-08-21T05:29:07;93760.94;;;23.52;93.65
12475;BME280;6302;42.624;23.334;2023-08-21T05:31:34;93768.22;;;23.61;94.17
12475;BME280;6302;42.624;23.334;2023-08-21T05:34:01;93765.09;;;23.62;94.73
12475;BME280;6302;42.624;23.334;2023-08-21T05:36:28;93765.47;;;23.70;92.91
12475;BME280;6302;42.624;23.334;2023-08-21T05:38:57;93761.09;;;23.72;91.09
12475;BME280;6302;42.624;23.334;2023-08-21T05:41:24;93760.13;;;23.75;91.25
12475;BME280;6302;42.624;23.334;2023-08-21T05:43:50;93756.78;;;23.80;89.67
12475;BME280;6302;42.624;23.334;2023-08-21T05:46:17;93759.59;;;23.86;87.77
12475;BME280;6302;42.624;23.334;2023-08-21T05:48:44;93758.47;;;23.92;89.11
12475;BME280;6302;42.624;23.334;2023-08-21T05:51:10;93756.47;;;24.02;88.50
12475;BME280;6302;42.624;23.334;2023-08-21T05:53:37;93754.78;;;24.05;87.92
12475;BME280;6302;42.624;23.334;2023-08-21T05:56:05;93755.84;;;24.07;86.60
12475;BME280;6302;42.624;23.334;2023-08-21T05:58:32;93754.59;;;24.23;87.20
12475;BME280;6302;42.624;23.334;2023-08-21T06:00:59;93753.69;;;24.26;85.12
12475;BME280;6302;42.624;23.334;2023-08-21T06:03:26;93749.84;;;24.32;85.26
12475;BME280;6302;42.624;23.334;2023-08-21T06:05:53;93762.66;;;24.32;83.61
12475;BME280;6302;42.624;23.334;2023-08-21T06:08:20;93757.94;;;24.47;81.73
12475;BME280;6302;42.624;23.334;2023-08-21T06:10:51;93759.06;;;24.55;77.50
12475;BME280;6302;42.624;23.334;2023-08-21T06:13:19;93757.22;;;24.46;77.74
12475;BME280;6302;42.624;23.334;2023-08-21T06:15:46;93761.88;;;24.61;79.64
12475;BME280;6302;42.624;23.334;2023-08-21T06:18:13;93772.19;;;24.77;78.05
12475;BME280;6302;42.624;23.334;2023-08-21T06:20:42;93765.19;;;24.85;77.56
12475;BME280;6302;42.624;23.334;2023-08-21T06:23:09;93768.94;;;24.87;78.25
12475;BME280;6302;42.624;23.334;2023-08-21T06:25:36;93770.97;;;24.92;79.01
12475;BME280;6302;42.624;23.334;2023-08-21T06:28:03;93768.00;;;24.90;78.45
12475;BME280;6302;42.624;23.334;2023-08-21T06:30:31;93773.03;;;24.97;77.05
12475;BME280;6302;42.624;23.334;2023-08-21T06:32:58;93767.41;;;25.01;75.70
12475;BME280;6302;42.624;23.334;2023-08-21T06:35:25;93772.03;;;25.15;74.54
12475;BME280;6302;42.624;23.334;2023-08-21T06:37:52;93777.59;;;25.26;74.82
12475;BME280;6302;42.624;23.334;2023-08-21T06:40:19;93777.66;;;25.32;73.75
12475;BME280;6302;42.624;23.334;2023-08-21T06:42:46;93775.66;;;25.47;71.87
12475;BME280;6302;42.624;23.334;2023-08-21T06:45:14;93776.19;;;25.51;71.25
12475;BME280;6302;42.624;23.334;2023-08-21T06:47:45;93776.88;;;25.66;69.13
12475;BME280;6302;42.624;23.334;2023-08-21T06:50:16;93779.31;;;25.64;69.23
12475;BME280;6302;42.624;23.334;2023-08-21T06:52:42;93776.69;;;25.69;68.83
12475;BME280;6302;42.624;23.334;2023-08-21T06:55:09;93782.97;;;25.81;70.11
12475;BME280;6302;42.624;23.334;2023-08-21T06:57:36;93786.34;;;25.96;67.54
12475;BME280;6302;42.624;23.334;2023-08-21T07:00:04;93781.72;;;26.02;67.15
12475;BME280;6302;42.624;23.334;2023-08-21T07:02:32;93788.03;;;26.14;65.08
12475;BME280;6302;42.624;23.334;2023-08-21T07:05:00;93786.41;;;26.27;63.53
12475;BME280;6302;42.624;23.334;2023-08-21T07:07:27;93777.06;;;26.28;63.06
12475;BME280;6302;42.624;23.334;2023-08-21T07:09:54;93785.03;;;26.37;62.83
12475;BME280;6302;42.624;23.334;2023-08-21T07:12:21;93784.91;;;26.52;62.57
12475;BME280;6302;42.624;23.334;2023-08-21T07:14:48;93786.16;;;26.57;63.21
12475;BME280;6302;42.624;23.334;2023-08-21T07:17:15;93785.78;;;26.69;62.47
12475;BME280;6302;42.624;23.334;2023-08-21T07:19:42;93781.47;;;26.83;61.08
12475;BME280;6302;42.624;23.334;2023-08-21T07:22:10;93782.72;;;26.87;60.55
12475;BME280;6302;42.624;23.334;2023-08-21T07:24:37;93766.91;;;26.86;59.46
12475;BME280;6302;42.624;23.334;2023-08-21T07:27:04;93783.09;;;27.06;56.70
12475;BME280;6302;42.624;23.334;2023-08-21T07:29:30;93778.94;;;27.10;57.48
12475;BME280;6302;42.624;23.334;2023-08-21T07:31:57;93776.28;;;27.27;58.77
12475;BME280;6302;42.624;23.334;2023-08-21T07:34:24;93774.31;;;27.33;57.23
12475;BME280;6302;42.624;23.334;2023-08-21T07:36:51;93780.06;;;27.35;55.62
12475;BME280;6302;42.624;23.334;2023-08-21T07:39:19;93772.72;;;27.52;57.17
12475;BME280;6302;42.624;23.334;2023-08-21T07:41:46;93778.47;;;27.65;55.97
12475;BME280;6302;42.624;23.334;2023-08-21T07:44:12;93781.47;;;27.67;54.82
12475;BME280;6302;42.624;23.334;2023-08-21T07:46:39;93774.28;;;27.75;54.55
12475;BME280;6302;42.624;23.334;2023-08-21T07:49:06;93778.06;;;27.89;54.25
12475;BME280;6302;42.624;23.334;2023-08-21T07:51:32;93767.63;;;27.88;53.56
12475;BME280;6302;42.624;23.334;2023-08-21T07:53:59;93772.44;;;28.09;54.96
12475;BME280;6302;42.624;23.334;2023-08-21T07:56:27;93768.47;;;28.16;52.46
12475;BME280;6302;42.624;23.334;2023-08-21T07:58:54;93767.25;;;28.11;52.23
12475;BME280;6302;42.624;23.334;2023-08-21T08:01:21;93776.66;;;28.27;53.28
12475;BME280;6302;42.624;23.334;2023-08-21T08:03:48;93767.53;;;28.41;52.23
12475;BME280;6302;42.624;23.334;2023-08-21T08:06:15;93772.97;;;28.52;51.18
12475;BME280;6302;42.624;23.334;2023-08-21T08:08:42;93774.25;;;28.62;51.05
12475;BME280;6302;42.624;23.334;2023-08-21T08:11:09;93757.38;;;28.64;50.27
12475;BME280;6302;42.624;23.334;2023-08-21T08:13:37;93771.28;;;28.66;48.82
12475;BME280;6302;42.624;23.334;2023-08-21T08:16:04;93768.03;;;28.78;49.51
12475;BME280;6302;42.624;23.334;2023-08-21T08:18:31;93773.22;;;28.98;48.39
12475;BME280;6302;42.624;23.334;2023-08-21T08:20:57;93765.28;;;29.00;47.49
12475;BME280;6302;42.624;23.334;2023-08-21T08:23:24;93763.78;;;28.99;47.84
12475;BME280;6302;42.624;23.334;2023-08-21T08:25:51;93757.81;;;29.01;48.26
12475;BME280;6302;42.624;23.334;2023-08-21T08:28:18;93759.31;;;29.13;46.66
12475;BME280;6302;42.624;23.334;2023-08-21T08:30:46;93761.81;;;29.06;46.87
12475;BME280;6302;42.624;23.334;2023-08-21T08:33:13;93759.56;;;29.10;47.06
12475;BME280;6302;42.624;23.334;2023-08-21T08:35:40;93754.81;;;29.27;47.56
12475;BME280;6302;42.624;23.334;2023-08-21T08:38:07;93757.50;;;29.43;44.69
12475;BME280;6302;42.624;23.334;2023-08-21T08:40:37;93757.75;;;29.40;45.45
12475;BME280;6302;42.624;23.334;2023-08-21T08:43:08;93753.00;;;29.51;45.55
12475;BME280;6302;42.624;23.334;2023-08-21T08:45:35;93752.44;;;29.64;46.51
12475;BME280;6302;42.624;23.334;2023-08-21T08:48:06;93752.16;;;29.73;45.65
12475;BME280;6302;42.624;23.334;2023-08-21T08:50:33;93749.38;;;29.90;45.26
12475;BME280;6302;42.624;23.334;2023-08-21T08:53:01;93749.06;;;30.04;43.86
12475;BME280;6302;42.624;23.334;2023-08-21T08:55:28;93748.97;;;30.15;44.22
12475;BME280;6302;42.624;23.334;2023-08-21T08:57:55;93749.13;;;30.28;44.05
12475;BME280;6302;42.624;23.334;2023-08-21T09:00:22;93741.63;;;30.40;43.91
12475;BME280;6302;42.624;23.334;2023-08-21T09:02:49;93743.53;;;30.51;41.66
12475;BME280;6302;42.624;23.334;2023-08-21T09:05:17;93744.69;;;30.61;42.37
12475;BME280;6302;42.624;23.334;2023-08-21T09:07:44;93747.72;;;30.52;41.33
12475;BME280;6302;42.624;23.334;2023-08-21T09:10:14;93741.66;;;30.35;41.97
12475;BME280;6302;42.624;23.334;2023-08-21T09:12:45;93741.53;;;30.51;40.58
12475;BME280;6302;42.624;23.334;2023-08-21T09:15:11;93742.63;;;30.37;40.49
12475;BME280;6302;42.624;23.334;2023-08-21T09:17:38;93746.34;;;30.40;41.12
12475;BME280;6302;42.624;23.334;2023-08-21T09:20:06;93733.38;;;30.46;42.26
12475;BME280;6302;42.624;23.334;2023-08-21T09:22:34;93739.00;;;30.59;40.61
12475;BME280;6302;42.624;23.334;2023-08-21T09:25:03;93737.25;;;30.61;38.89
12475;BME280;6302;42.624;23.334;2023-08-21T09:27:32;93732.03;;;30.58;39.35
12475;BME280;6302;42.624;23.334;2023-08-21T09:29:59;93728.78;;;30.59;39.48
12475;BME280;6302;42.624;23.334;2023-08-21T09:32:27;93731.59;;;30.78;39.39
12475;BME280;6302;42.624;23.334;2023-08-21T09:34:54;93733.63;;;30.72;39.01
12475;BME280;6302;42.624;23.334;2023-08-21T09:37:21;93723.84;;;30.82;39.88
12475;BME280;6302;42.624;23.334;2023-08-21T09:40:00;93730.03;;;30.88;40.29
12475;BME280;6302;42.624;23.334;2023-08-21T09:42:28;93728.16;;;31.02;37.44
12475;BME280;6302;42.624;23.334;2023-08-21T09:44:56;93728.81;;;31.13;38.57
12475;BME280;6302;42.624;23.334;2023-08-21T09:47:23;93721.88;;;31.31;39.66
12475;BME280;6302;42.624;23.334;2023-08-21T09:49:52;93722.41;;;31.29;37.52
12475;BME280;6302;42.624;23.334;2023-08-21T09:52:19;93726.97;;;31.45;38.43
12475;BME280;6302;42.624;23.334;2023-08-21T09:54:47;93712.47;;;31.69;38.62
12475;BME280;6302;42.624;23.334;2023-08-21T09:57:16;93722.09;;;31.76;36.73
12475;BME280;6302;42.624;23.334;2023-08-21T09:59:43;93712.19;;;31.91;36.47
12475;BME280;6302;42.624;23.334;2023-08-21T10:02:10;93704.78;;;32.05;35.46
12475;BME280;6302;42.624;23.334;2023-08-21T10:04:40;93711.44;;;31.91;35.29
12475;BME280;6302;42.624;23.334;2023-08-21T10:07:09;93701.53;;;31.69;35.58
12475;BME280;6302;42.624;23.334;2023-08-21T10:09:38;93700.13;;;31.63;36.33
12475;BME280;6302;42.624;23.334;2023-08-21T10:12:08;93704.47;;;31.71;36.46
12475;BME280;6302;42.624;23.334;2023-08-21T10:14:37;93698.31;;;31.46;36.58
12475;BME280;6302;42.624;23.334;2023-08-21T10:17:05;93695.59;;;31.65;36.62
12475;BME280;6302;42.624;23.334;2023-08-21T10:19:34;93682.50;;;31.77;36.04
12475;BME280;6302;42.624;23.334;2023-08-21T10:22:01;93685.06;;;31.88;35.59
12475;BME280;6302;42.624;23.334;2023-08-21T10:24:33;93696.63;;;31.81;36.71
12475;BME280;6302;42.624;23.334;2023-08-21T10:27:01;93682.09;;;31.86;35.20
12475;BME280;6302;42.624;23.334;2023-08-21T10:29:28;93681.50;;;31.93;35.35
12475;BME280;6302;42.624;23.334;2023-08-21T10:32:01;93663.94;;;31.83;35.40
12475;BME280;6302;42.624;23.334;2023-08-21T10:34:32;93676.41;;;32.02;34.81
12475;BME280;6302;42.624;23.334;2023-08-21T10:37:04;93676.16;;;32.19;34.17
12475;BME280;6302;42.624;23.334;2023-08-21T10:39:33;93670.69;;;32.19;33.32
12475;BME280;6302;42.624;23.334;2023-08-21T10:42:04;93666.63;;;32.39;34.03
12475;BME280;6302;42.624;23.334;2023-08-21T10:44:35;93660.03;;;32.60;34.40
12475;BME280;6302;42.624;23.334;2023-08-21T10:47:18;93654.34;;;32.71;35.39
12475;BME280;6302;42.624;23.334;2023-08-21T10:49:46;93660.72;;;32.93;34.98
12475;BME280;6302;42.624;23.334;2023-08-21T10:52:13;93658.94;;;33.08;31.19
12475;BME280;6302;42.624;23.334;2023-08-21T10:54:48;93657.47;;;33.07;31.41
12475;BME280;6302;42.624;23.334;2023-08-21T10:57:15;93654.63;;;33.13;32.14
12475;BME280;6302;42.624;23.334;2023-08-21T10:59:55;93658.94;;;33.08;33.38
12475;BME280;6302;42.624;23.334;2023-08-21T11:02:25;93646.13;;;33.37;30.99
12475;BME280;6302;42.624;23.334;2023-08-21T11:04:52;93640.28;;;33.67;31.33
12475;BME280;6302;42.624;23.334;2023-08-21T11:07:19;93642.63;;;33.50;31.80
12475;BME280;6302;42.624;23.334;2023-08-21T11:09:47;93648.78;;;33.42;30.60
12475;BME280;6302;42.624;23.334;2023-08-21T11:12:16;93646.13;;;33.37;30.26
12475;BME280;6302;42.624;23.334;2023-08-21T11:14:44;93643.81;;;33.54;31.35
12475;BME280;6302;42.624;23.334;2023-08-21T11:17:11;93644.50;;;33.68;31.96
12475;BME280;6302;42.624;23.334;2023-08-21T11:19:40;93637.69;;;33.82;31.21
12475;BME280;6302;42.624;23.334;2023-08-21T11:22:07;93634.38;;;33.96;31.52
12475;BME280;6302;42.624;23.334;2023-08-21T11:24:42;93636.25;;;34.01;30.57
12475;BME280;6302;42.624;23.334;2023-08-21T11:27:10;93633.38;;;33.73;30.72
12475;BME280;6302;42.624;23.334;2023-08-21T11:29:38;93639.34;;;33.51;30.68
12475;BME280;6302;42.624;23.334;2023-08-21T11:32:10;93641.94;;;33.23;31.83
12475;BME280;6302;42.624;23.334;2023-08-21T11:34:37;93630.09;;;33.15;30.82
12475;BME280;6302;42.624;23.334;2023-08-21T11:37:05;93629.16;;;33.12;31.02
12475;BME280;6302;42.624;23.334;2023-08-21T11:39:42;93618.25;;;33.20;30.70
12475;BME280;6302;42.624;23.334;2023-08-21T11:42:10;93611.28;;;33.32;30.79
12475;BME280;6302;42.624;23.334;2023-08-21T11:44:45;93621.91;;;33.62;31.03
12475;BME280;6302;42.624;23.334;2023-08-21T11:47:12;93616.72;;;33.58;30.41
12475;BME280;6302;42.624;23.334;2023-08-21T11:49:41;93616.75;;;33.45;30.59
12475;BME280;6302;42.624;23.334;2023-08-21T11:52:11;93611.28;;;33.32;30.87
12475;BME280;6302;42.624;23.334;2023-08-21T11:54:39;93610.53;;;33.31;30.30
12475;BME280;6302;42.624;23.334;2023-08-21T11:57:08;93610.81;;;33.54;29.73
12475;BME280;6302;42.624;23.334;2023-08-21T11:59:35;93612.44;;;33.70;30.57
12475;BME280;6302;42.624;23.334;2023-08-21T12:02:09;93615.25;;;33.91;30.11
12475;BME280;6302;42.624;23.334;2023-08-21T12:04:36;93623.00;;;34.00;29.08
12475;BME280;6302;42.624;23.334;2023-08-21T12:07:03;93618.88;;;33.73;29.41
12475;BME280;6302;42.624;23.334;2023-08-21T12:09:31;93611.75;;;33.43;28.51
12475;BME280;6302;42.624;23.334;2023-08-21T12:11:58;93608.50;;;33.45;28.27
12475;BME280;6302;42.624;23.334;2023-08-21T12:14:25;93614.47;;;33.23;28.59
12475;BME280;6302;42.624;23.334;2023-08-21T12:16:52;93606.97;;;33.10;29.22
12475;BME280;6302;42.624;23.334;2023-08-21T12:19:19;93597.34;;;33.30;28.95
12475;BME280;6302;42.624;23.334;2023-08-21T12:21:47;93599.41;;;33.50;29.02
12475;BME280;6302;42.624;23.334;2023-08-21T12:24:13;93598.19;;;33.72;29.24
12475;BME280;6302;42.624;23.334;2023-08-21T12:26:42;93583.69;;;33.71;28.55
12475;BME280;6302;42.624;23.334;2023-08-21T12:29:08;93601.81;;;33.67;28.33
12475;BME280;6302;42.624;23.334;2023-08-21T12:31:35;93610.63;;;33.39;27.60
12475;BME280;6302;42.624;23.334;2023-08-21T12:34:02;93598.19;;;33.25;28.43
12475;BME280;6302;42.624;23.334;2023-08-21T12:36:30;93580.88;;;33.04;28.22
12475;BME280;6302;42.624;23.334;2023-08-21T12:38:57;93591.75;;;32.96;27.93
12475;BME280;6302;42.624;23.334;2023-08-21T12:41:23;93586.59;;;32.79;27.94
12475;BME280;6302;42.624;23.334;2023-08-21T12:43:51;93584.16;;;32.89;28.95
12475;BME280;6302;42.624;23.334;2023-08-21T12:46:18;93584.69;;;32.88;28.18
12475;BME280;6302;42.624;23.334;2023-08-21T12:48:45;93578.97;;;32.72;28.43
12475;BME280;6302;42.624;23.334;2023-08-21T12:51:12;93584.03;;;32.82;29.77
12475;BME280;6302;42.624;23.334;2023-08-21T12:53:38;93580.16;;;32.90;28.38
12475;BME280;6302;42.624;23.334;2023-08-21T12:56:05;93584.47;;;32.86;28.42
12475;BME280;6302;42.624;23.334;2023-08-21T12:58:32;93572.75;;;32.72;29.49
12475;BME280;6302;42.624;23.334;2023-08-21T13:01:00;93576.97;;;32.73;29.22
12475;BME280;6302;42.624;23.334;2023-08-21T13:03:28;93572.66;;;32.64;29.33